sensor_id;sensor_type;location;lat;lon;timestamp;P1;durP1;ratioP1;P2;durP2;ratioP2
74344;SDS011;62776;50.518;6.732;2023-09-19T00:02:02;1.35;;;0.63;;
74344;SDS011;62776;50.518;6.732;2023-09-19T00:04:49;0.65;;;0.65;;
74344;SDS011;62776;50.518;6.732;2023-09-19T00:07:36;1.52;;;0.70;;
74344;SDS011;62776;50.518;6.732;2023-09-19T00:10:23;1.55;;;1.02;;
74344;SDS011;62776;50.518;6.732;2023-09-19T00:13:11;1.45;;;1.05;;
74344;SDS011;62776;50.518;6.732;2023-09-19T00:15:58;3.78;;;1.25;;
74344;SDS011;62776;50.518;6.732;2023-09-19T00:18:45;1.63;;;0.70;;
74344;SDS011;62776;50.518;6.732;2023-09-19T00:21:31;1.85;;;1.40;;
74344;SDS011;62776;50.518;6.732;2023-09-19T00:24:19;3.75;;;0.93;;
74344;SDS011;62776;50.518;6.732;2023-09-19T00:27:05;1.55;;;0.95;;
74344;SDS011;62776;50.518;6.732;2023-09-19T00:29:53;1.05;;;0.70;;
74344;SDS011;62776;50.518;6.732;2023-09-19T00:32:39;1.23;;;0.93;;
74344;SDS011;62776;50.518;6.732;2023-09-19T00:35:26;1.60;;;0.80;;
74344;SDS011;62776;50.518;6.732;2023-09-19T00:38:12;1.02;;;0.80;;
74344;SDS011;62776;50.518;6.732;2023-09-19T00:41:01;2.70;;;1.15;;
74344;SDS011;62776;50.518;6.732;2023-09-19T00:43:48;1.35;;;0.80;;
74344;SDS011;62776;50.518;6.732;2023-09-19T00:46:44;1.40;;;0.80;;
74344;SDS011;62776;50.518;6.732;2023-09-19T00:49:34;0.77;;;0.77;;
74344;SDS011;62776;50.518;6.732;2023-09-19T00:52:20;2.05;;;0.60;;
74344;SDS011;62776;50.518;6.732;2023-09-19T00:55:08;1.52;;;0.70;;
74344;SDS011;62776;50.518;6.732;2023-09-19T00:57:56;1.52;;;0.70;;
74344;SDS011;62776;50.518;6.732;2023-09-19T01:00:43;1.70;;;0.82;;
74344;SDS011;62776;50.518;6.732;2023-09-19T01:03:29;1.88;;;0.85;;
74344;SDS011;62776;50.518;6.732;2023-09-19T01:06:17;4.13;;;1.20;;
74344;SDS011;62776;50.518;6.732;2023-09-19T01:09:04;0.77;;;0.77;;
74344;SDS011;62776;50.518;6.732;2023-09-19T01:11:51;1.88;;;0.80;;
74344;SDS011;62776;50.518;6.732;2023-09-19T01:17:43;1.70;;;1.25;;
74344;SDS011;62776;50.518;6.732;2023-09-19T01:20:45;1.10;;;1.00;;
74344;SDS011;62776;50.518;6.732;2023-09-19T01:29:49;2.42;;;0.88;;
74344;SDS011;62776;50.518;6.732;2023-09-19T01:32:35;2.38;;;1.10;;
74344;SDS011;62776;50.518;6.732;2023-09-19T01:35:24;1.85;;;1.17;;
74344;SDS011;62776;50.518;6.732;2023-09-19T01:38:11;1.50;;;0.80;;
74344;SDS011;62776;50.518;6.732;2023-09-19T01:41:03;1.73;;;1.10;;
74344;SDS011;62776;50.518;6.732;2023-09-19T01:43:55;2.00;;;1.27;;
74344;SDS011;62776;50.518;6.732;2023-09-19T01:46:44;2.15;;;1.17;;
74344;SDS011;62776;50.518;6.732;2023-09-19T01:52:30;3.33;;;1.35;;
74344;SDS011;62776;50.518;6.732;2023-09-19T01:55:21;1.95;;;0.93;;
74344;SDS011;62776;50.518;6.732;2023-09-19T02:01:14;1.45;;;0.93;;
74344;SDS011;62776;50.518;6.732;2023-09-19T02:04:04;2.15;;;1.27;;
74344;SDS011;62776;50.518;6.732;2023-09-19T02:06:52;1.73;;;0.98;;
74344;SDS011;62776;50.518;6.732;2023-09-19T02:09:39;2.38;;;0.82;;
74344;SDS011;62776;50.518;6.732;2023-09-19T02:12:27;1.95;;;0.95;;
74344;SDS011;62776;50.518;6.732;2023-09-19T02:15:15;1.30;;;0.93;;
74344;SDS011;62776;50.518;6.732;2023-09-19T02:18:01;3.15;;;1.55;;
74344;SDS011;62776;50.518;6.732;2023-09-19T02:20:48;2.22;;;1.02;;
74344;SDS011;62776;50.518;6.732;2023-09-19T02:23:36;2.20;;;0.80;;
74344;SDS011;62776;50.518;6.732;2023-09-19T02:26:23;3.72;;;1.17;;
74344;SDS011;62776;50.518;6.732;2023-09-19T02:29:09;3.42;;;1.48;;
74344;SDS011;62776;50.518;6.732;2023-09-19T02:31:59;1.60;;;1.25;;
74344;SDS011;62776;50.518;6.732;2023-09-19T02:34:48;2.17;;;1.13;;
74344;SDS011;62776;50.518;6.732;2023-09-19T02:37:36;4.20;;;1.50;;
74344;SDS011;62776;50.518;6.732;2023-09-19T02:40:23;3.20;;;1.30;;
74344;SDS011;62776;50.518;6.732;2023-09-19T02:43:10;2.33;;;1.13;;
74344;SDS011;62776;50.518;6.732;2023-09-19T02:45:56;2.63;;;1.27;;
74344;SDS011;62776;50.518;6.732;2023-09-19T02:48:42;2.70;;;1.75;;
74344;SDS011;62776;50.518;6.732;2023-09-19T02:51:29;2.38;;;1.45;;
74344;SDS011;62776;50.518;6.732;2023-09-19T02:54:15;1.30;;;1.00;;
74344;SDS011;62776;50.518;6.732;2023-09-19T02:57:02;3.05;;;1.60;;
74344;SDS011;62776;50.518;6.732;2023-09-19T02:59:51;3.58;;;1.77;;
74344;SDS011;62776;50.518;6.732;2023-09-19T03:02:37;2.53;;;1.73;;
74344;SDS011;62776;50.518;6.732;2023-09-19T03:05:26;3.83;;;1.30;;
74344;SDS011;62776;50.518;6.732;2023-09-19T03:08:15;2.95;;;1.17;;
74344;SDS011;62776;50.518;6.732;2023-09-19T03:11:05;2.40;;;1.65;;
74344;SDS011;62776;50.518;6.732;2023-09-19T03:13:53;2.28;;;1.75;;
74344;SDS011;62776;50.518;6.732;2023-09-19T03:16:40;4.18;;;1.67;;
74344;SDS011;62776;50.518;6.732;2023-09-19T03:22:33;3.03;;;1.13;;
74344;SDS011;62776;50.518;6.732;2023-09-19T03:25:19;3.08;;;1.10;;
74344;SDS011;62776;50.518;6.732;2023-09-19T03:28:08;5.05;;;1.90;;
74344;SDS011;62776;50.518;6.732;2023-09-19T03:30:58;3.10;;;1.30;;
74344;SDS011;62776;50.518;6.732;2023-09-19T03:33:48;3.17;;;1.50;;
74344;SDS011;62776;50.518;6.732;2023-09-19T03:36:35;2.05;;;1.27;;
74344;SDS011;62776;50.518;6.732;2023-09-19T03:39:21;2.60;;;1.20;;
74344;SDS011;62776;50.518;6.732;2023-09-19T03:42:13;2.75;;;1.40;;
74344;SDS011;62776;50.518;6.732;2023-09-19T03:45:00;2.22;;;1.55;;
74344;SDS011;62776;50.518;6.732;2023-09-19T03:47:50;3.55;;;1.33;;
74344;SDS011;62776;50.518;6.732;2023-09-19T03:50:38;2.85;;;1.20;;
74344;SDS011;62776;50.518;6.732;2023-09-19T03:53:25;2.65;;;1.17;;
74344;SDS011;62776;50.518;6.732;2023-09-19T03:56:11;1.75;;;1.08;;
74344;SDS011;62776;50.518;6.732;2023-09-19T03:58:57;1.67;;;1.20;;
74344;SDS011;62776;50.518;6.732;2023-09-19T04:01:43;2.85;;;1.50;;
74344;SDS011;62776;50.518;6.732;2023-09-19T04:04:32;4.90;;;1.77;;
74344;SDS011;62776;50.518;6.732;2023-09-19T04:07:18;2.85;;;1.75;;
74344;SDS011;62776;50.518;6.732;2023-09-19T04:10:07;2.88;;;1.60;;
74344;SDS011;62776;50.518;6.732;2023-09-19T04:12:55;2.20;;;1.33;;
74344;SDS011;62776;50.518;6.732;2023-09-19T04:15:45;2.08;;;1.48;;
74344;SDS011;62776;50.518;6.732;2023-09-19T04:18:31;4.00;;;1.33;;
74344;SDS011;62776;50.518;6.732;2023-09-19T04:21:22;2.67;;;1.42;;
74344;SDS011;62776;50.518;6.732;2023-09-19T04:24:08;2.58;;;1.77;;
74344;SDS011;62776;50.518;6.732;2023-09-19T04:27:13;1.98;;;1.50;;
74344;SDS011;62776;50.518;6.732;2023-09-19T04:29:59;3.13;;;1.50;;
74344;SDS011;62776;50.518;6.732;2023-09-19T04:32:50;2.92;;;1.58;;
74344;SDS011;62776;50.518;6.732;2023-09-19T04:35:36;2.60;;;1.90;;
74344;SDS011;62776;50.518;6.732;2023-09-19T04:38:24;2.90;;;1.52;;
74344;SDS011;62776;50.518;6.732;2023-09-19T04:41:10;3.83;;;1.70;;
74344;SDS011;62776;50.518;6.732;2023-09-19T04:43:56;2.58;;;1.60;;
74344;SDS011;62776;50.518;6.732;2023-09-19T04:46:43;1.92;;;1.33;;
74344;SDS011;62776;50.518;6.732;2023-09-19T04:49:34;2.58;;;1.40;;
74344;SDS011;62776;50.518;6.732;2023-09-19T04:52:20;3.20;;;1.67;;
74344;SDS011;62776;50.518;6.732;2023-09-19T04:55:06;3.65;;;2.30;;
74344;SDS011;62776;50.518;6.732;2023-09-19T04:57:54;4.10;;;1.60;;
74344;SDS011;62776;50.518;6.732;2023-09-19T05:00:40;2.65;;;1.90;;
74344;SDS011;62776;50.518;6.732;2023-09-19T05:03:29;4.13;;;1.63;;
74344;SDS011;62776;50.518;6.732;2023-09-19T05:06:16;1.95;;;1.33;;
74344;SDS011;62776;50.518;6.732;2023-09-19T05:09:03;3.10;;;1.55;;
74344;SDS011;62776;50.518;6.732;2023-09-19T05:11:51;2.63;;;1.48;;
74344;SDS011;62776;50.518;6.732;2023-09-19T05:14:38;2.65;;;1.20;;
74344;SDS011;62776;50.518;6.732;2023-09-19T05:17:26;3.40;;;1.70;;
74344;SDS011;62776;50.518;6.732;2023-09-19T05:20:12;3.08;;;1.77;;
74344;SDS011;62776;50.518;6.732;2023-09-19T05:23:02;3.70;;;1.48;;
74344;SDS011;62776;50.518;6.732;2023-09-19T05:26:03;4.15;;;2.20;;
74344;SDS011;62776;50.518;6.732;2023-09-19T05:28:50;5.10;;;2.15;;
74344;SDS011;62776;50.518;6.732;2023-09-19T05:31:38;3.47;;;1.25;;
74344;SDS011;62776;50.518;6.732;2023-09-19T05:34:27;4.03;;;1.60;;
74344;SDS011;62776;50.518;6.732;2023-09-19T05:37:15;4.20;;;1.67;;
74344;SDS011;62776;50.518;6.732;2023-09-19T05:40:03;3.72;;;1.58;;
74344;SDS011;62776;50.518;6.732;2023-09-19T05:42:55;3.58;;;1.60;;
74344;SDS011;62776;50.518;6.732;2023-09-19T05:45:41;4.18;;;1.63;;
74344;SDS011;62776;50.518;6.732;2023-09-19T05:48:27;2.67;;;1.60;;
74344;SDS011;62776;50.518;6.732;2023-09-19T05:51:13;4.00;;;1.70;;
74344;SDS011;62776;50.518;6.732;2023-09-19T05:53:59;4.32;;;2.03;;
74344;SDS011;62776;50.518;6.732;2023-09-19T05:56:48;3.35;;;2.03;;
74344;SDS011;62776;50.518;6.732;2023-09-19T05:59:38;5.07;;;2.28;;
74344;SDS011;62776;50.518;6.732;2023-09-19T06:02:25;4.93;;;1.73;;
74344;SDS011;62776;50.518;6.732;2023-09-19T06:05:15;2.22;;;1.33;;
74344;SDS011;62776;50.518;6.732;2023-09-19T06:08:01;3.03;;;1.30;;
74344;SDS011;62776;50.518;6.732;2023-09-19T06:10:52;2.83;;;1.42;;
74344;SDS011;62776;50.518;6.732;2023-09-19T06:13:39;2.95;;;1.65;;
74344;SDS011;62776;50.518;6.732;2023-09-19T06:16:25;3.53;;;1.73;;
74344;SDS011;62776;50.518;6.732;2023-09-19T06:19:12;3.00;;;1.40;;
74344;SDS011;62776;50.518;6.732;2023-09-19T06:21:58;3.35;;;1.67;;
74344;SDS011;62776;50.518;6.732;2023-09-19T06:24:45;3.03;;;2.10;;
74344;SDS011;62776;50.518;6.732;2023-09-19T06:27:32;2.95;;;1.50;;
74344;SDS011;62776;50.518;6.732;2023-09-19T06:30:18;2.65;;;1.90;;
74344;SDS011;62776;50.518;6.732;2023-09-19T06:33:04;2.42;;;1.60;;
74344;SDS011;62776;50.518;6.732;2023-09-19T06:35:50;3.25;;;1.70;;
74344;SDS011;62776;50.518;6.732;2023-09-19T06:38:37;3.17;;;1.52;;
74344;SDS011;62776;50.518;6.732;2023-09-19T06:41:26;2.75;;;1.70;;
74344;SDS011;62776;50.518;6.732;2023-09-19T06:44:12;2.60;;;1.45;;
74344;SDS011;62776;50.518;6.732;2023-09-19T06:46:58;5.15;;;1.67;;
74344;SDS011;62776;50.518;6.732;2023-09-19T06:49:44;2.85;;;1.90;;
74344;SDS011;62776;50.518;6.732;2023-09-19T06:52:30;7.07;;;2.00;;
74344;SDS011;62776;50.518;6.732;2023-09-19T06:55:18;3.53;;;2.00;;
74344;SDS011;62776;50.518;6.732;2023-09-19T06:58:06;3.10;;;1.38;;
74344;SDS011;62776;50.518;6.732;2023-09-19T07:00:52;3.53;;;1.25;;
74344;SDS011;62776;50.518;6.732;2023-09-19T07:03:39;4.20;;;1.83;;
74344;SDS011;62776;50.518;6.732;2023-09-19T07:06:25;4.22;;;1.55;;
74344;SDS011;62776;50.518;6.732;2023-09-19T07:09:11;3.30;;;1.70;;
74344;SDS011;62776;50.518;6.732;2023-09-19T07:11:57;4.45;;;1.70;;
74344;SDS011;62776;50.518;6.732;2023-09-19T07:14:43;3.70;;;1.50;;
74344;SDS011;62776;50.518;6.732;2023-09-19T07:17:29;2.35;;;1.23;;
74344;SDS011;62776;50.518;6.732;2023-09-19T07:20:15;2.88;;;1.70;;
74344;SDS011;62776;50.518;6.732;2023-09-19T07:23:01;3.08;;;1.80;;
74344;SDS011;62776;50.518;6.732;2023-09-19T07:25:48;2.55;;;1.35;;
74344;SDS011;62776;50.518;6.732;2023-09-19T07:28:34;4.68;;;1.48;;
74344;SDS011;62776;50.518;6.732;2023-09-19T07:31:21;2.83;;;1.85;;
74344;SDS011;62776;50.518;6.732;2023-09-19T07:34:07;2.72;;;1.50;;
74344;SDS011;62776;50.518;6.732;2023-09-19T07:36:55;2.83;;;1.60;;
74344;SDS011;62776;50.518;6.732;2023-09-19T07:39:42;2.70;;;1.48;;
74344;SDS011;62776;50.518;6.732;2023-09-19T07:42:29;5.30;;;1.80;;
74344;SDS011;62776;50.518;6.732;2023-09-19T07:45:16;3.85;;;2.40;;
74344;SDS011;62776;50.518;6.732;2023-09-19T07:48:03;1.45;;;1.33;;
74344;SDS011;62776;50.518;6.732;2023-09-19T07:50:51;1.80;;;1.55;;
74344;SDS011;62776;50.518;6.732;2023-09-19T07:53:37;3.00;;;1.25;;
74344;SDS011;62776;50.518;6.732;2023-09-19T07:56:23;2.95;;;1.45;;
74344;SDS011;62776;50.518;6.732;2023-09-19T07:59:12;3.10;;;1.60;;
74344;SDS011;62776;50.518;6.732;2023-09-19T08:01:58;3.20;;;1.52;;
74344;SDS011;62776;50.518;6.732;2023-09-19T08:04:45;3.33;;;1.77;;
74344;SDS011;62776;50.518;6.732;2023-09-19T08:07:32;5.95;;;2.28;;
74344;SDS011;62776;50.518;6.732;2023-09-19T08:10:21;5.25;;;2.08;;
74344;SDS011;62776;50.518;6.732;2023-09-19T08:13:07;3.35;;;1.45;;
74344;SDS011;62776;50.518;6.732;2023-09-19T08:15:59;2.72;;;1.73;;
74344;SDS011;62776;50.518;6.732;2023-09-19T08:18:48;4.88;;;1.38;;
74344;SDS011;62776;50.518;6.732;2023-09-19T08:21:40;4.72;;;1.30;;
74344;SDS011;62776;50.518;6.732;2023-09-19T08:24:27;3.35;;;1.35;;
74344;SDS011;62776;50.518;6.732;2023-09-19T08:27:14;3.50;;;1.52;;
74344;SDS011;62776;50.518;6.732;2023-09-19T08:30:03;2.78;;;1.38;;
74344;SDS011;62776;50.518;6.732;2023-09-19T08:32:50;2.22;;;1.38;;
74344;SDS011;62776;50.518;6.732;2023-09-19T08:35:42;2.63;;;1.42;;
74344;SDS011;62776;50.518;6.732;2023-09-19T08:38:31;2.80;;;1.40;;
74344;SDS011;62776;50.518;6.732;2023-09-19T08:41:18;1.77;;;1.30;;
74344;SDS011;62776;50.518;6.732;2023-09-19T08:44:04;1.83;;;1.17;;
74344;SDS011;62776;50.518;6.732;2023-09-19T08:46:53;3.35;;;1.42;;
74344;SDS011;62776;50.518;6.732;2023-09-19T08:52:48;2.25;;;1.55;;
74344;SDS011;62776;50.518;6.732;2023-09-19T08:55:39;2.90;;;1.45;;
74344;SDS011;62776;50.518;6.732;2023-09-19T08:58:31;2.05;;;1.42;;
74344;SDS011;62776;50.518;6.732;2023-09-19T09:01:29;2.47;;;1.30;;
74344;SDS011;62776;50.518;6.732;2023-09-19T09:04:17;1.73;;;1.33;;
74344;SDS011;62776;50.518;6.732;2023-09-19T09:07:04;2.20;;;1.75;;
74344;SDS011;62776;50.518;6.732;2023-09-19T09:09:51;4.13;;;1.40;;
74344;SDS011;62776;50.518;6.732;2023-09-19T09:12:37;2.78;;;1.55;;
74344;SDS011;62776;50.518;6.732;2023-09-19T09:15:26;2.55;;;1.65;;
74344;SDS011;62776;50.518;6.732;2023-09-19T09:18:14;3.85;;;2.50;;
74344;SDS011;62776;50.518;6.732;2023-09-19T09:21:01;1.55;;;1.08;;
74344;SDS011;62776;50.518;6.732;2023-09-19T09:23:49;2.72;;;1.17;;
74344;SDS011;62776;50.518;6.732;2023-09-19T09:29:49;2.40;;;1.25;;
74344;SDS011;62776;50.518;6.732;2023-09-19T09:32:37;1.45;;;1.35;;
74344;SDS011;62776;50.518;6.732;2023-09-19T09:35:24;3.90;;;1.77;;
74344;SDS011;62776;50.518;6.732;2023-09-19T09:38:12;1.35;;;1.20;;
74344;SDS011;62776;50.518;6.732;2023-09-19T09:40:59;2.20;;;1.13;;
74344;SDS011;62776;50.518;6.732;2023-09-19T09:43:51;2.17;;;1.30;;
74344;SDS011;62776;50.518;6.732;2023-09-19T09:46:38;2.30;;;1.10;;
74344;SDS011;62776;50.518;6.732;2023-09-19T09:49:47;2.63;;;1.05;;
74344;SDS011;62776;50.518;6.732;2023-09-19T09:52:45;1.02;;;0.93;;
74344;SDS011;62776;50.518;6.732;2023-09-19T09:58:51;9.43;;;1.80;;
74344;SDS011;62776;50.518;6.732;2023-09-19T10:01:46;0.90;;;0.77;;
74344;SDS011;62776;50.518;6.732;2023-09-19T10:04:33;1.85;;;1.38;;
74344;SDS011;62776;50.518;6.732;2023-09-19T10:07:30;2.10;;;1.25;;
74344;SDS011;62776;50.518;6.732;2023-09-19T10:13:29;1.85;;;1.02;;
74344;SDS011;62776;50.518;6.732;2023-09-19T10:16:17;2.95;;;1.20;;
74344;SDS011;62776;50.518;6.732;2023-09-19T10:19:08;1.55;;;0.90;;
74344;SDS011;62776;50.518;6.732;2023-09-19T10:21:57;3.95;;;1.20;;
74344;SDS011;62776;50.518;6.732;2023-09-19T10:24:46;2.22;;;1.20;;
74344;SDS011;62776;50.518;6.732;2023-09-19T10:27:37;2.97;;;1.67;;
74344;SDS011;62776;50.518;6.732;2023-09-19T10:30:28;1.52;;;1.00;;
74344;SDS011;62776;50.518;6.732;2023-09-19T10:33:17;1.40;;;1.10;;
74344;SDS011;62776;50.518;6.732;2023-09-19T10:36:07;1.80;;;1.20;;
74344;SDS011;62776;50.518;6.732;2023-09-19T10:38:56;1.77;;;1.20;;
74344;SDS011;62776;50.518;6.732;2023-09-19T10:41:53;1.30;;;0.90;;
74344;SDS011;62776;50.518;6.732;2023-09-19T10:44:48;1.30;;;1.17;;
74344;SDS011;62776;50.518;6.732;2023-09-19T10:47:39;1.65;;;1.20;;
74344;SDS011;62776;50.518;6.732;2023-09-19T10:50:25;1.90;;;1.48;;
74344;SDS011;62776;50.518;6.732;2023-09-19T10:53:16;1.20;;;1.10;;
74344;SDS011;62776;50.518;6.732;2023-09-19T10:56:03;3.47;;;1.52;;
74344;SDS011;62776;50.518;6.732;2023-09-19T10:59:13;1.52;;;0.85;;
74344;SDS011;62776;50.518;6.732;2023-09-19T11:02:16;1.42;;;1.25;;
74344;SDS011;62776;50.518;6.732;2023-09-19T11:05:12;1.45;;;0.93;;
74344;SDS011;62776;50.518;6.732;2023-09-19T11:07:59;2.45;;;1.40;;
74344;SDS011;62776;50.518;6.732;2023-09-19T11:10:49;2.80;;;1.00;;
74344;SDS011;62776;50.518;6.732;2023-09-19T11:13:36;0.90;;;0.90;;
74344;SDS011;62776;50.518;6.732;2023-09-19T11:16:24;2.13;;;1.42;;
74344;SDS011;62776;50.518;6.732;2023-09-19T11:19:10;1.38;;;1.00;;
74344;SDS011;62776;50.518;6.732;2023-09-19T11:21:58;0.80;;;0.80;;
74344;SDS011;62776;50.518;6.732;2023-09-19T11:24:44;2.88;;;1.58;;
74344;SDS011;62776;50.518;6.732;2023-09-19T11:27:30;1.23;;;0.90;;
74344;SDS011;62776;50.518;6.732;2023-09-19T11:30:26;1.02;;;0.90;;
74344;SDS011;62776;50.518;6.732;2023-09-19T11:36:09;2.40;;;1.30;;
74344;SDS011;62776;50.518;6.732;2023-09-19T11:39:24;3.83;;;1.42;;
74344;SDS011;62776;50.518;6.732;2023-09-19T11:48:30;1.33;;;0.85;;
74344;SDS011;62776;50.518;6.732;2023-09-19T11:51:22;1.00;;;0.85;;
74344;SDS011;62776;50.518;6.732;2023-09-19T11:54:12;1.73;;;0.93;;
74344;SDS011;62776;50.518;6.732;2023-09-19T11:57:03;0.80;;;0.80;;
74344;SDS011;62776;50.518;6.732;2023-09-19T11:59:49;0.93;;;0.80;;
74344;SDS011;62776;50.518;6.732;2023-09-19T12:02:42;2.42;;;1.23;;
74344;SDS011;62776;50.518;6.732;2023-09-19T12:05:35;2.10;;;1.00;;
74344;SDS011;62776;50.518;6.732;2023-09-19T12:08:22;1.38;;;0.93;;
74344;SDS011;62776;50.518;6.732;2023-09-19T12:11:11;1.10;;;0.70;;
74344;SDS011;62776;50.518;6.732;2023-09-19T12:14:00;1.10;;;0.85;;
74344;SDS011;62776;50.518;6.732;2023-09-19T12:16:53;1.33;;;1.00;;
74344;SDS011;62776;50.518;6.732;2023-09-19T12:19:49;2.53;;;1.13;;
74344;SDS011;62776;50.518;6.732;2023-09-19T12:22:41;2.15;;;1.08;;
74344;SDS011;62776;50.518;6.732;2023-09-19T12:25:40;1.27;;;0.70;;
74344;SDS011;62776;50.518;6.732;2023-09-19T12:28:37;0.80;;;0.80;;
74344;SDS011;62776;50.518;6.732;2023-09-19T12:31:28;1.15;;;0.73;;
74344;SDS011;62776;50.518;6.732;2023-09-19T12:34:16;1.00;;;0.82;;
74344;SDS011;62776;50.518;6.732;2023-09-19T12:37:05;1.75;;;0.80;;
74344;SDS011;62776;50.518;6.732;2023-09-19T12:40:09;2.85;;;1.13;;
74344;SDS011;62776;50.518;6.732;2023-09-19T12:43:07;2.55;;;1.30;;
74344;SDS011;62776;50.518;6.732;2023-09-19T12:45:58;0.93;;;0.60;;
74344;SDS011;62776;50.518;6.732;2023-09-19T12:48:48;3.30;;;1.63;;
74344;SDS011;62776;50.518;6.732;2023-09-19T12:51:58;5.43;;;1.20;;
74344;SDS011;62776;50.518;6.732;2023-09-19T12:54:44;0.90;;;0.60;;
74344;SDS011;62776;50.518;6.732;2023-09-19T12:57:34;0.75;;;0.65;;
74344;SDS011;62776;50.518;6.732;2023-09-19T13:00:20;3.00;;;0.70;;
74344;SDS011;62776;50.518;6.732;2023-09-19T13:03:18;1.33;;;0.82;;
74344;SDS011;62776;50.518;6.732;2023-09-19T13:06:13;1.63;;;0.98;;
74344;SDS011;62776;50.518;6.732;2023-09-19T13:09:08;2.33;;;0.70;;
74344;SDS011;62776;50.518;6.732;2023-09-19T13:11:55;1.88;;;1.02;;
74344;SDS011;62776;50.518;6.732;2023-09-19T13:14:44;0.82;;;0.70;;
74344;SDS011;62776;50.518;6.732;2023-09-19T13:17:46;1.17;;;0.80;;
74344;SDS011;62776;50.518;6.732;2023-09-19T13:20:36;1.02;;;0.75;;
74344;SDS011;62776;50.518;6.732;2023-09-19T13:23:28;2.08;;;1.13;;
74344;SDS011;62776;50.518;6.732;2023-09-19T13:26:14;1.15;;;0.93;;
74344;SDS011;62776;50.518;6.732;2023-09-19T13:29:01;1.17;;;0.98;;
74344;SDS011;62776;50.518;6.732;2023-09-19T13:31:47;2.47;;;0.82;;
74344;SDS011;62776;50.518;6.732;2023-09-19T13:34:34;1.38;;;0.50;;
74344;SDS011;62776;50.518;6.732;2023-09-19T13:37:20;1.17;;;0.80;;
74344;SDS011;62776;50.518;6.732;2023-09-19T13:40:11;2.35;;;0.70;;
74344;SDS011;62776;50.518;6.732;2023-09-19T13:42:58;1.47;;;0.70;;
74344;SDS011;62776;50.518;6.732;2023-09-19T13:45:44;1.10;;;0.82;;
74344;SDS011;62776;50.518;6.732;2023-09-19T13:48:31;4.45;;;0.98;;
74344;SDS011;62776;50.518;6.732;2023-09-19T13:51:20;0.70;;;0.60;;
74344;SDS011;62776;50.518;6.732;2023-09-19T13:54:08;0.90;;;0.90;;
74344;SDS011;62776;50.518;6.732;2023-09-19T13:56:54;1.65;;;0.77;;
74344;SDS011;62776;50.518;6.732;2023-09-19T13:59:40;2.22;;;1.13;;
74344;SDS011;62776;50.518;6.732;2023-09-19T14:02:26;1.42;;;0.90;;
74344;SDS011;62776;50.518;6.732;2023-09-19T14:05:15;0.70;;;0.55;;
74344;SDS011;62776;50.518;6.732;2023-09-19T14:08:02;2.40;;;0.80;;
74344;SDS011;62776;50.518;6.732;2023-09-19T14:10:51;1.30;;;0.90;;
74344;SDS011;62776;50.518;6.732;2023-09-19T14:13:38;1.08;;;0.60;;
74344;SDS011;62776;50.518;6.732;2023-09-19T14:16:25;2.15;;;0.80;;
74344;SDS011;62776;50.518;6.732;2023-09-19T14:19:15;0.73;;;0.60;;
74344;SDS011;62776;50.518;6.732;2023-09-19T14:22:06;1.90;;;1.13;;
74344;SDS011;62776;50.518;6.732;2023-09-19T14:24:52;1.23;;;0.98;;
74344;SDS011;62776;50.518;6.732;2023-09-19T14:27:39;1.98;;;1.13;;
74344;SDS011;62776;50.518;6.732;2023-09-19T14:30:27;1.65;;;0.80;;
74344;SDS011;62776;50.518;6.732;2023-09-19T14:33:16;1.40;;;0.75;;
74344;SDS011;62776;50.518;6.732;2023-09-19T14:36:06;0.73;;;0.70;;
74344;SDS011;62776;50.518;6.732;2023-09-19T14:38:54;0.63;;;0.60;;
74344;SDS011;62776;50.518;6.732;2023-09-19T14:41:42;0.70;;;0.50;;
74344;SDS011;62776;50.518;6.732;2023-09-19T14:44:28;1.45;;;0.88;;
74344;SDS011;62776;50.518;6.732;2023-09-19T14:47:14;1.13;;;0.70;;
74344;SDS011;62776;50.518;6.732;2023-09-19T14:50:02;1.17;;;0.73;;
74344;SDS011;62776;50.518;6.732;2023-09-19T14:52:53;1.45;;;0.70;;
74344;SDS011;62776;50.518;6.732;2023-09-19T14:55:39;0.68;;;0.63;;
74344;SDS011;62776;50.518;6.732;2023-09-19T14:58:31;1.35;;;0.70;;
74344;SDS011;62776;50.518;6.732;2023-09-19T15:01:18;0.43;;;0.43;;
74344;SDS011;62776;50.518;6.732;2023-09-19T15:04:04;0.60;;;0.52;;
74344;SDS011;62776;50.518;6.732;2023-09-19T15:06:50;1.45;;;0.63;;
74344;SDS011;62776;50.518;6.732;2023-09-19T15:09:39;0.73;;;0.40;;
74344;SDS011;62776;50.518;6.732;2023-09-19T15:12:29;0.82;;;0.60;;
74344;SDS011;62776;50.518;6.732;2023-09-19T15:15:15;1.88;;;0.70;;
74344;SDS011;62776;50.518;6.732;2023-09-19T15:18:02;2.58;;;1.05;;
74344;SDS011;62776;50.518;6.732;2023-09-19T15:20:50;0.82;;;0.60;;
74344;SDS011;62776;50.518;6.732;2023-09-19T15:23:37;1.70;;;0.77;;
74344;SDS011;62776;50.518;6.732;2023-09-19T15:26:25;0.70;;;0.70;;
74344;SDS011;62776;50.518;6.732;2023-09-19T15:29:11;1.08;;;0.73;;
74344;SDS011;62776;50.518;6.732;2023-09-19T15:31:58;1.27;;;0.70;;
74344;SDS011;62776;50.518;6.732;2023-09-19T15:34:47;1.13;;;0.80;;
74344;SDS011;62776;50.518;6.732;2023-09-19T15:37:33;0.75;;;0.68;;
74344;SDS011;62776;50.518;6.732;2023-09-19T15:40:19;0.65;;;0.65;;
74344;SDS011;62776;50.518;6.732;2023-09-19T15:43:08;0.70;;;0.65;;
74344;SDS011;62776;50.518;6.732;2023-09-19T15:45:54;1.10;;;0.90;;
74344;SDS011;62776;50.518;6.732;2023-09-19T15:48:41;1.13;;;0.60;;
74344;SDS011;62776;50.518;6.732;2023-09-19T15:51:27;1.63;;;1.10;;
74344;SDS011;62776;50.518;6.732;2023-09-19T15:54:14;1.63;;;0.93;;
74344;SDS011;62776;50.518;6.732;2023-09-19T15:57:02;1.92;;;0.77;;
74344;SDS011;62776;50.518;6.732;2023-09-19T15:59:48;1.08;;;0.60;;
74344;SDS011;62776;50.518;6.732;2023-09-19T16:02:34;1.10;;;0.70;;
74344;SDS011;62776;50.518;6.732;2023-09-19T16:05:21;1.30;;;0.60;;
74344;SDS011;62776;50.518;6.732;2023-09-19T16:08:07;1.08;;;0.80;;
74344;SDS011;62776;50.518;6.732;2023-09-19T16:10:53;0.75;;;0.75;;
74344;SDS011;62776;50.518;6.732;2023-09-19T16:13:40;1.13;;;0.70;;
74344;SDS011;62776;50.518;6.732;2023-09-19T16:16:28;2.65;;;1.38;;
74344;SDS011;62776;50.518;6.732;2023-09-19T16:19:18;1.65;;;0.73;;
74344;SDS011;62776;50.518;6.732;2023-09-19T16:22:04;2.00;;;0.77;;
74344;SDS011;62776;50.518;6.732;2023-09-19T16:24:50;1.67;;;0.80;;
74344;SDS011;62776;50.518;6.732;2023-09-19T16:27:36;1.75;;;1.08;;
74344;SDS011;62776;50.518;6.732;2023-09-19T16:30:23;0.73;;;0.65;;
74344;SDS011;62776;50.518;6.732;2023-09-19T16:33:09;0.90;;;0.70;;
74344;SDS011;62776;50.518;6.732;2023-09-19T16:35:56;1.10;;;0.82;;
74344;SDS011;62776;50.518;6.732;2023-09-19T16:38:45;1.30;;;0.80;;
74344;SDS011;62776;50.518;6.732;2023-09-19T16:41:36;0.70;;;0.70;;
74344;SDS011;62776;50.518;6.732;2023-09-19T16:44:24;0.73;;;0.55;;
74344;SDS011;62776;50.518;6.732;2023-09-19T16:47:10;1.50;;;1.08;;
74344;SDS011;62776;50.518;6.732;2023-09-19T16:49:56;1.15;;;0.90;;
74344;SDS011;62776;50.518;6.732;2023-09-19T16:52:42;1.65;;;0.98;;
74344;SDS011;62776;50.518;6.732;2023-09-19T16:55:28;2.72;;;0.85;;
74344;SDS011;62776;50.518;6.732;2023-09-19T16:58:15;2.63;;;1.00;;
74344;SDS011;62776;50.518;6.732;2023-09-19T17:01:03;1.33;;;0.80;;
74344;SDS011;62776;50.518;6.732;2023-09-19T17:03:56;1.38;;;1.00;;
74344;SDS011;62776;50.518;6.732;2023-09-19T17:06:42;0.90;;;0.68;;
74344;SDS011;62776;50.518;6.732;2023-09-19T17:09:31;1.55;;;0.90;;
74344;SDS011;62776;50.518;6.732;2023-09-19T17:12:18;0.80;;;0.75;;
74344;SDS011;62776;50.518;6.732;2023-09-19T17:15:04;1.65;;;0.60;;
74344;SDS011;62776;50.518;6.732;2023-09-19T17:17:51;1.15;;;1.05;;
74344;SDS011;62776;50.518;6.732;2023-09-19T17:20:42;1.30;;;1.20;;
74344;SDS011;62776;50.518;6.732;2023-09-19T17:23:28;1.65;;;1.13;;
74344;SDS011;62776;50.518;6.732;2023-09-19T17:26:15;0.77;;;0.68;;
74344;SDS011;62776;50.518;6.732;2023-09-19T17:29:02;1.55;;;1.10;;
74344;SDS011;62776;50.518;6.732;2023-09-19T17:31:50;0.98;;;0.85;;
74344;SDS011;62776;50.518;6.732;2023-09-19T17:34:37;2.40;;;0.88;;
74344;SDS011;62776;50.518;6.732;2023-09-19T17:37:23;2.22;;;1.15;;